Boulder, CO (80301)

11:08 AM MDT on October 23, 2014 (GMT -0600)
63rd St & Jay Rd | Change Station
CLOSE
Current Station
Personal Weather Station
Location: Boulder, CO
Elevation: 5202 ft
Nearby Weather Stations

Elev 5202 ft 40.06 °N, 105.21 °W | Updated 1 minute ago

Clear
Clear
62.3 °F
Feels Like 62.3 °F
N
0.0
Wind Variable Wind from SSE
Gusts 3.0 mph

Today
High -- | Low -- °F
--% Chance of Precip.
Yesterday
High -- | Low -- °F
Precip. -- in
7:19 AM 6:09 PM
Waning Crescent, 0% visible
Pressure 30.17 in
Visibility 10.0 miles
Clouds Clear
Dew Point 41 °F
Humidity 45%
Rainfall 0.00 in
Snow Depth 0 in , 1 in
UV 4 out of 12
Pollen 2.50 out of 12
Ozone Good
PM2.5 Good
Flu Activity Sporadic
METAR KBDU 231656Z AUTO 00000KT 10SM CLR 18/02 A3017 RMK AO2

More Conditions Fewer Conditions

Pressure 30.17 in
Visibility 10.0 miles
Clouds Clear
Dew Point 41 °F
Humidity 45%
Rainfall 0.00 in
Snow Depth 0 in , 1 in
UV 4 out of 12
Pollen 2.50 out of 12
Ozone Good
PM2.5 Good
Flu Activity Sporadic
METAR KBDU 231656Z AUTO 00000KT 10SM CLR 18/02 A3017 RMK AO2

More Conditions Fewer Conditions

10-Day Weather Forecast

Almanac

Astronomy

Oct. 23, 2014 Rise Set
Actual Time 7:19 AM MDT 6:09 PM MDT
Civil Twilight 6:52 AM MDT 6:37 PM MDT
Nautical Twilight 6:20 AM MDT 7:08 PM MDT
Astronomical Twilight 5:49 AM MDT 7:40 PM MDT
Moon 7:02 AM MDT 6:12 PM MDT
Length of Visible Light 11h 44m
Length of Day
10h 49m
Tomorrow will be 2m 27s shorter.
Waning Crescent, 0% of the Moon is Illuminated
Today
Waning Crescent
Oct 23
New
Oct 30
First Quarter
Nov 6
Full
Nov 14
Last Quarter

Today's Extremes

State Highs State Lows

Community

WunderPhotos

Upload Photos

1,764,311 photos uploaded!

WunderBlogs® & News

Nearby

Air Quality

  Air Quality AQ Index Pollutant
Yesterday Good
OZONE
Yesterday Good
PM10
Current Good
OZONE
Current Good
PM2.5
Thursday Good
OZONE
Thursday Good
PM2.5

Snow Depth

Station Depth Elevation
Niwot 0 in 9910 ft
University Camp 1 in 10300 ft
Copeland Lake 1 in 8600 ft
Wild Basin 0 in 9560 ft
Bear Lake 0 in 9500 ft

Earthquake Activity

City Distance Mag. Time & Date
No recent earthquake activity has been reported nearby.
Minimum magnitude displayed is 2.5.

Coastal Water Temperatures

Place Temperature
No Stations Reporting

Nearby Weather Stations